Miami, Florida
Traffic Map
Current Weather Conditions
Miami, Florida
Broken Clouds
Broken Clouds
79°
Feels Like: 81°
Wind Chill: 79° Ceiling: 3600
Heat Index: 81° Visibility: 10mi
Dew Point: 67° Wind: 10mph
Humidity: 66% Direction: 100° (E)
Pressure: 30.17in Gusts: 0mph
Raw Report DataKOPF 171953Z 10009KT 10SM BKN036 26/19 A3017 RMK AO2 SLP218 T02610194
Traffic Incident Summary
Active as of:
Severity:
Category:
InformationThere was an issue retrieving the traffic information for this location. Please try a different location or try again shortly.
Advertisements